Time;durP1;ratioP1;P1;durP2;ratioP2;P2;SDS_P1;SDS_P2;PMS_P1;PMS_P2;Temp;Humidity;BMP_temperature;BMP_pressure;BME280_temperature;BME280_humidity;BME280_pressure;Samples;Min_cycle;Max_cycle;Signal;HPM_P1;HPM_P2
2022/04/09 00:00:47;;;;;;;18.20;12.65;;;;;;;5.53;68.05;99533.63;4865511;29;20084;-81
2022/04/09 00:03:13;;;;;;;15.43;12.27;;;;;;;5.57;67.82;99540.47;4882385;29;20414;-81
2022/04/09 00:05:39;;;;;;;21.35;12.07;;;;;;;5.58;67.84;99538.66;4850110;29;20053;-81
2022/04/09 00:08:05;;;;;;;20.60;12.65;;;;;;;5.55;67.77;99525.59;4881878;29;20064;-81
2022/04/09 00:10:31;;;;;;;19.08;12.60;;;;;;;5.57;67.87;99535.16;4882408;29;20088;-81
2022/04/09 00:12:57;;;;;;;19.67;12.68;;;;;;;5.53;68.22;99528.34;4865626;29;20045;-81
2022/04/09 00:15:23;;;;;;;17.30;12.85;;;;;;;5.65;67.88;99539.19;4865156;29;20528;-82
2022/04/09 00:17:49;;;;;;;28.85;14.65;;;;;;;5.67;67.54;99529.34;4881980;29;20052;-82
2022/04/09 00:20:18;;;;;;;35.97;19.13;;;;;;;5.66;68.05;99532.94;4882047;29;20453;-82
2022/04/09 00:22:45;;;;;;;39.87;22.53;;;;;;;5.68;67.62;99531.03;4865522;29;20041;-81
2022/04/09 00:25:14;;;;;;;79.47;25.95;;;;;;;5.68;67.54;99533.69;4881800;29;20497;-82
2022/04/09 00:27:40;;;;;;;76.40;30.67;;;;;;;5.66;67.62;99532.94;4882045;29;20085;-82
2022/04/09 00:30:09;;;;;;;76.13;35.67;;;;;;;5.65;67.89;99531.22;4834806;29;20101;-81
2022/04/09 00:32:35;;;;;;;58.83;29.65;;;;;;;5.63;67.99;99533.09;4849822;29;20144;-81
2022/04/09 00:35:02;;;;;;;62.75;31.05;;;;;;;5.67;68.15;99529.34;4865150;29;20131;-81
2022/04/09 00:37:34;;;;;;;57.10;30.98;;;;;;;5.67;68.13;99524.03;4849755;29;20079;-83
2022/04/09 00:40:00;;;;;;;59.33;27.88;;;;;;;5.58;68.17;99515.66;4849665;29;20092;-81
2022/04/09 00:42:26;;;;;;;46.05;29.98;;;;;;;5.64;68.26;99518.91;4865089;29;20045;-83
2022/04/09 00:44:52;;;;;;;36.03;28.90;;;;;;;5.66;68.17;99527.63;4865032;29;20068;-84
2022/04/09 00:47:18;;;;;;;38.47;28.25;;;;;;;5.63;68.31;99522.50;4834280;29;20044;-81
2022/04/09 00:49:44;;;;;;;44.33;27.50;;;;;;;5.64;68.19;99518.91;4865238;29;20074;-82
2022/04/09 00:52:10;;;;;;;36.15;28.92;;;;;;;5.60;68.04;99529.69;4881473;29;20064;-81
2022/04/09 00:54:39;;;;;;;34.72;27.63;;;;;;;5.61;68.12;99525.25;4849451;29;20566;-83
2022/04/09 00:57:06;;;;;;;43.85;28.42;;;;;;;5.52;67.87;99518.66;4864850;29;20052;-81
2022/04/09 00:59:37;;;;;;;38.08;27.67;;;;;;;5.45;67.95;99519.94;4864923;29;20052;-82
2022/04/09 01:02:03;;;;;;;32.13;26.27;;;;;;;5.41;68.22;99526.34;4849020;29;20064;-81
2022/04/09 01:04:31;;;;;;;33.17;25.73;;;;;;;5.34;68.42;99533.81;4864628;29;20049;-81
2022/04/09 01:06:59;;;;;;;33.22;25.30;;;;;;;5.26;68.47;99525.41;4864539;29;20045;-82
2022/04/09 01:09:25;;;;;;;33.92;25.00;;;;;;;5.27;68.66;99531.59;4864463;29;20089;-82
2022/04/09 01:11:52;;;;;;;30.45;24.10;;;;;;;5.22;68.59;99523.88;4864535;29;20143;-82
2022/04/09 01:14:18;;;;;;;32.53;24.73;;;;;;;5.20;68.63;99525.75;4833769;29;20080;-83
2022/04/09 01:16:44;;;;;;;33.35;25.38;;;;;;;5.19;68.73;99520.53;4864587;29;20044;-82
2022/04/09 01:19:11;;;;;;;35.25;25.88;;;;;;;5.20;68.63;99519.59;4864295;29;20057;-81
2022/04/09 01:21:39;;;;;;;32.63;24.85;;;;;;;5.19;68.78;99523.19;4864620;29;20147;-81
2022/04/09 01:24:06;;;;;;;37.17;27.13;;;;;;;5.14;68.79;99520.78;4864217;29;20065;-82
2022/04/09 01:26:36;;;;;;;35.10;26.42;;;;;;;5.16;68.67;99518.06;4849487;29;20121;-81
2022/04/09 01:29:06;;;;;;;37.40;25.95;;;;;;;5.10;68.88;99509.50;4849392;29;20091;-81
2022/04/09 01:31:32;;;;;;;46.20;26.88;;;;;;;5.14;68.92;99525.22;4848722;29;20049;-81
2022/04/09 01:33:58;;;;;;;38.53;25.48;;;;;;;5.14;69.11;99530.53;4863928;29;20048;-81
2022/04/09 01:36:25;;;;;;;41.03;25.80;;;;;;;5.14;68.82;99523.44;4863795;29;20049;-82
2022/04/09 01:38:51;;;;;;;36.80;24.90;;;;;;;5.15;68.86;99513.69;4880827;29;20536;-81
2022/04/09 01:41:17;;;;;;;34.05;23.90;;;;;;;5.10;68.88;99508.66;4848281;29;20461;-81
2022/04/09 01:43:55;;;;;;;35.00;24.48;;;;;;;5.17;68.76;99525.06;4848900;29;20045;-82
2022/04/09 01:46:22;;;;;;;34.28;26.13;;;;;;;5.13;68.86;99513.78;4864035;29;20500;-82
2022/04/09 01:48:48;;;;;;;34.35;26.95;;;;;;;5.13;68.72;99513.78;4848649;29;20045;-81
2022/04/09 01:51:14;;;;;;;37.78;27.45;;;;;;;5.18;68.57;99521.47;4864032;29;20060;-81
2022/04/09 01:53:40;;;;;;;34.70;28.65;;;;;;;5.13;68.63;99523.53;4865583;29;20056;-82
2022/04/09 01:56:07;;;;;;;39.45;25.98;;;;;;;5.11;68.65;99519.19;4896476;29;20053;-82
2022/04/09 01:58:36;;;;;;;35.35;24.38;;;;;;;5.13;68.33;99523.53;4883596;29;20075;-83
2022/04/09 02:01:02;;;;;;;36.42;24.48;;;;;;;5.08;68.33;99529.94;4879622;29;20057;-81
2022/04/09 02:03:30;;;;;;;31.90;24.80;;;;;;;5.08;68.66;99524.63;4849192;29;20040;-82
2022/04/09 02:05:56;;;;;;;37.47;24.60;;;;;;;5.04;68.48;99520.44;4848513;29;20056;-81
2022/04/09 02:08:22;;;;;;;29.45;24.65;;;;;;;5.08;68.38;99531.75;4863032;29;20057;-81
2022/04/09 02:10:48;;;;;;;29.92;25.90;;;;;;;5.06;68.37;99525.66;4880418;29;20139;-82
2022/04/09 02:13:18;;;;;;;31.75;26.95;;;;;;;5.01;68.68;99520.63;4848045;29;20572;-81
2022/04/09 02:15:44;;;;;;;52.25;26.00;;;;;;;5.04;68.65;99525.75;4848141;29;20461;-82
2022/04/09 02:18:11;;;;;;;36.47;24.88;;;;;;;5.08;68.65;99522.00;4863400;29;20053;-81
2022/04/09 02:20:37;;;;;;;47.03;25.77;;;;;;;5.08;68.71;99515.84;4863229;29;20135;-83
2022/04/09 02:23:05;;;;;;;32.53;24.83;;;;;;;5.08;68.44;99522.00;4848445;29;20055;-81
2022/04/09 02:25:31;;;;;;;31.20;25.23;;;;;;;5.19;68.24;99533.78;4880118;29;20496;-82
2022/04/09 02:27:57;;;;;;;34.88;25.50;;;;;;;5.20;68.49;99530.22;4847981;29;20045;-81
2022/04/09 02:30:25;;;;;;;36.88;27.33;;;;;;;5.22;68.24;99529.16;4848370;29;20112;-81
2022/04/09 02:33:03;;;;;;;37.92;28.25;;;;;;;5.28;68.41;99533.28;4849258;29;20075;-80
2022/04/09 02:35:34;;;;;;;57.08;29.98;;;;;;;5.39;68.25;99536.19;4880081;29;20056;-83
2022/04/09 02:38:02;;;;;;;32.67;25.73;;;;;;;5.47;68.07;99536.63;4862930;29;20136;-83
2022/04/09 02:40:30;;;;;;;52.03;27.67;;;;;;;5.58;67.66;99536.03;4847433;29;20500;-82
2022/04/09 02:42:56;;;;;;;78.20;31.33;;;;;;;5.64;67.69;99543.59;4847668;29;20061;-81
2022/04/09 02:45:24;;;;;;;39.50;26.65;;;;;;;5.76;67.50;99544.75;4861907;29;20045;-83
2022/04/09 02:47:50;;;;;;;43.13;28.25;;;;;;;5.89;67.13;99553.69;4870929;29;20048;-84
2022/04/09 02:50:20;;;;;;;39.90;27.67;;;;;;;5.98;66.59;99544.38;4862931;29;20045;-82
2022/04/09 02:52:47;;;;;;;51.97;29.98;;;;;;;5.98;66.52;99542.59;4847690;29;20053;-83
2022/04/09 02:55:14;;;;;;;46.55;28.80;;;;;;;5.99;66.36;99541.66;4859622;29;20048;-82
2022/04/09 02:57:42;;;;;;;39.45;29.70;;;;;;;6.10;66.28;99543.69;4859560;29;20417;-82
2022/04/09 03:00:12;;;;;;;47.83;28.73;;;;;;;6.16;66.11;99542.44;4859133;29;20100;-80
2022/04/09 03:02:39;;;;;;;51.50;28.25;;;;;;;6.25;65.80;99541.94;4862074;29;20269;-82
2022/04/09 03:05:08;;;;;;;;;;;;;;;6.33;65.61;99542.31;4863615;29;20056;-80
2022/04/09 03:07:34;;;;;;;39.50;27.65;;;;;;;6.40;65.67;99546.31;4829226;29;19920;-83
2022/04/09 03:09:59;;;;;;;48.10;26.92;;;;;;;6.54;65.44;99551.66;4829313;29;20061;-81
2022/04/09 03:12:26;;;;;;;45.67;27.05;;;;;;;6.68;65.08;99549.97;4859466;29;20073;-82
2022/04/09 03:14:52;;;;;;;72.18;27.92;;;;;;;6.71;64.64;99545.31;4828899;29;20099;-81
2022/04/09 03:17:18;;;;;;;62.67;28.02;;;;;;;6.78;64.49;99545.81;4859432;29;20535;-80
2022/04/09 03:19:44;;;;;;;43.35;28.08;;;;;;;6.93;64.40;99536.88;4859328;29;20038;-81
2022/04/09 03:22:11;;;;;;;50.28;28.77;;;;;;;7.13;63.89;99545.41;4846918;29;20048;-80
2022/04/09 03:24:39;;;;;;;83.30;29.60;;;;;;;7.22;63.77;99542.16;4848102;29;20068;-83
2022/04/09 03:27:07;;;;;;;55.65;28.83;;;;;;;7.41;63.62;99556.03;4848355;29;20497;-81
2022/04/09 03:29:34;;;;;;;56.95;28.48;;;;;;;7.55;63.61;99553.31;4848102;29;20144;-81
2022/04/09 03:32:02;;;;;;;71.35;28.73;;;;;;;7.62;62.70;99552.94;4848016;29;20093;-78
2022/04/09 03:34:31;;;;;;;68.22;28.55;;;;;;;7.78;62.82;99556.31;4847902;29;20080;-78
2022/04/09 03:37:00;;;;;;;55.00;28.52;;;;;;;7.90;62.57;99557.31;4847799;29;20053;-80
2022/04/09 03:39:29;;;;;;;88.63;31.03;;;;;;;7.94;61.39;99551.72;4832125;29;20056;-79
2022/04/09 03:41:55;;;;;;;74.85;30.05;;;;;;;8.01;61.87;99549.47;4862661;29;20060;-78
2022/04/09 03:44:21;;;;;;;87.47;30.58;;;;;;;8.06;61.93;99547.38;4862926;29;20485;-79
2022/04/09 03:47:00;;;;;;;53.63;26.40;;;;;;;8.13;61.31;99553.16;4847283;29;20068;-79
2022/04/09 03:49:28;;;;;;;60.75;27.10;;;;;;;8.28;61.34;99544.97;4832295;29;20061;-78
2022/04/09 03:51:54;;;;;;;53.85;29.13;;;;;;;8.54;61.10;99554.84;4832119;29;20053;-80
2022/04/09 03:54:22;;;;;;;65.47;28.93;;;;;;;8.72;60.60;99545.59;4831788;29;20045;-83
2022/04/09 03:56:49;;;;;;;44.97;27.25;;;;;;;8.73;60.33;99542.00;4832285;29;20061;-80
2022/04/09 03:59:19;;;;;;;66.65;26.52;;;;;;;8.82;60.16;99536.00;4847064;29;20109;-79
2022/04/09 04:01:47;;;;;;;63.05;27.00;;;;;;;8.98;59.98;99549.09;4831814;29;20057;-81
2022/04/09 04:04:15;;;;;;;49.65;26.88;;;;;;;9.14;59.51;99540.88;4847298;29;20057;-80
2022/04/09 04:06:42;;;;;;;62.47;27.20;;;;;;;9.24;59.06;99539.25;4847041;29;20489;-81
2022/04/09 04:09:09;;;;;;;70.57;30.10;;;;;;;9.36;58.98;99535.72;4846848;29;20057;-80
2022/04/09 04:11:35;;;;;;;64.38;28.83;;;;;;;9.56;58.61;99539.63;4834451;29;20122;-87
2022/04/09 04:14:01;;;;;;;61.13;29.17;;;;;;;9.57;58.36;99521.78;4832194;29;20193;-81
2022/04/09 04:16:28;;;;;;;80.00;33.13;;;;;;;9.55;57.26;99529.03;4840491;29;20053;-81
2022/04/09 04:18:54;;;;;;;77.45;30.85;;;;;;;9.36;57.85;99534.88;4865084;29;20527;-81
2022/04/09 04:21:21;;;;;;;54.85;27.67;;;;;;;9.55;58.06;99537.06;4834278;29;20462;-81
2022/04/09 04:23:55;;;;;;;51.58;27.38;;;;;;;9.65;57.83;99535.44;4850777;29;20063;-79
2022/04/09 04:26:22;;;;;;;86.88;29.77;;;;;;;9.66;57.58;99531.78;4865361;29;20084;-80
2022/04/09 04:28:51;;;;;;;62.95;30.58;;;;;;;9.69;57.91;99532.41;4850083;29;20047;-83
2022/04/09 04:31:18;;;;;;;67.22;27.73;;;;;;;9.70;57.52;99527.91;4849616;29;20045;-85
2022/04/09 04:33:44;;;;;;;66.47;28.77;;;;;;;9.81;57.21;99533.31;4849865;29;20139;-83
2022/04/09 04:36:11;;;;;;;64.60;26.17;;;;;;;9.81;57.32;99536.00;4851720;29;20076;-84
2022/04/09 04:38:40;;;;;;;62.75;24.50;;;;;;;9.68;57.21;99521.84;4850133;29;20045;-83
2022/04/09 04:41:06;;;;;;;55.60;26.20;;;;;;;9.60;57.01;99530.44;4865163;29;20386;-82
2022/04/09 04:43:33;;;;;;;40.15;26.20;;;;;;;9.51;58.28;99527.56;4836220;29;20148;-83
2022/04/09 04:46:02;;;;;;;63.47;26.83;;;;;;;9.68;57.64;99524.53;4866521;29;20053;-82
2022/04/09 04:48:28;;;;;;;42.83;25.67;;;;;;;9.92;57.60;99520.03;4834378;29;20053;-87
2022/04/09 04:50:56;;;;;;;50.40;26.17;;;;;;;10.12;57.23;99510.53;4864748;29;20053;-81
2022/04/09 04:53:24;;;;;;;36.78;23.15;;;;;;;10.44;56.84;99526.81;4864540;29;20048;-84
2022/04/09 04:55:55;;;;;;;41.72;24.52;;;;;;;10.37;56.02;99522.91;4850167;29;20049;-81
2022/04/09 04:58:26;;;;;;;44.53;23.30;;;;;;;10.53;56.54;99529.75;4834824;29;20139;-83
2022/04/09 05:01:02;;;;;;;39.22;24.35;;;;;;;10.60;55.87;99529.16;4849278;29;20049;-85
2022/04/09 05:03:29;;;;;;;49.17;25.95;;;;;;;10.60;55.78;99528.31;4864928;29;20116;-84
2022/04/09 05:06:05;;;;;;;46.78;25.83;;;;;;;10.82;55.82;99531.03;4851172;29;20122;-81
2022/04/09 05:08:32;;;;;;;39.53;25.65;;;;;;;11.10;54.95;99520.84;4848316;29;20132;-85
2022/04/09 05:10:59;;;;;;;45.13;23.17;;;;;;;11.32;54.51;99520.84;4872343;29;20397;-85
2022/04/09 05:13:30;;;;;;;44.50;25.05;;;;;;;11.48;54.36;99519.59;4850300;29;20108;-85
2022/04/09 05:15:56;;;;;;;39.20;26.17;;;;;;;11.63;54.04;99518.34;4833496;29;20390;-80
2022/04/09 05:18:23;;;;;;;40.88;27.85;;;;;;;11.94;53.15;99521.22;4849184;29;20147;-79
2022/04/09 05:20:51;;;;;;;46.72;30.05;;;;;;;12.19;52.72;99515.50;4864161;29;20048;-85
2022/04/09 05:23:17;;;;;;;44.28;28.65;;;;;;;12.43;52.74;99514.41;4834442;29;20113;-79
2022/04/09 05:25:44;;;;;;;57.80;29.80;;;;;;;12.69;51.99;99522.91;4849003;29;20081;-81
2022/04/09 05:28:10;;;;;;;50.22;29.30;;;;;;;12.85;51.77;99518.75;4864152;29;20053;-85
2022/04/09 05:30:43;;;;;;;42.58;28.50;;;;;;;12.67;51.01;99514.97;4849544;29;20048;-82
2022/04/09 05:33:10;;;;;;;52.97;29.73;;;;;;;12.59;51.10;99522.84;4848980;29;20128;-83
2022/04/09 05:35:39;;;;;;;;;;;;;;;12.53;51.60;99528.75;4834056;29;20070;-82
2022/04/09 05:38:05;;;;;;;54.22;30.40;;;;;;;12.53;51.30;99520.69;4849067;29;19919;-86
2022/04/09 05:40:34;;;;;;;;;;;;;;;12.30;51.10;99522.66;4834169;29;20493;-83
2022/04/09 05:43:08;;;;;;;41.92;26.90;;;;;;;11.94;51.88;99511.34;4863925;29;20018;-85
2022/04/09 05:45:34;;;;;;;54.42;24.95;;;;;;;12.07;52.56;99521.88;4848821;29;20121;-85
2022/04/09 05:48:00;;;;;;;41.53;25.52;;;;;;;11.82;52.85;99512.34;4849608;29;20056;-87
2022/04/09 05:50:40;;;;;;;47.00;24.48;;;;;;;11.53;53.53;99522.75;4850419;29;20057;-86
2022/04/09 05:53:07;;;;;;;43.65;25.33;;;;;;;11.17;54.17;99517.56;4834208;29;20053;-83
2022/04/09 05:55:33;;;;;;;67.85;25.65;;;;;;;11.27;54.68;99527.50;4880553;29;20496;-85
2022/04/09 05:57:59;;;;;;;37.75;25.65;;;;;;;11.14;54.99;99519.63;4879902;29;20045;-85
2022/04/09 06:00:28;;;;;;;43.20;25.40;;;;;;;11.52;54.90;99521.03;4833375;29;20051;-84
2022/04/09 06:03:13;;;;;;;40.55;25.92;;;;;;;11.80;54.27;99525.84;4863547;29;20048;-86
2022/04/09 06:05:40;;;;;;;51.28;26.00;;;;;;;12.12;53.78;99514.31;4848398;29;20045;-81
2022/04/09 06:08:13;;;;;;;42.70;25.13;;;;;;;12.51;52.61;99514.59;4834196;29;20061;-83
2022/04/09 06:10:40;;;;;;;46.00;26.08;;;;;;;12.68;52.40;99516.72;4848695;29;20093;-82
2022/04/09 06:13:06;;;;;;;39.70;24.50;;;;;;;12.62;52.23;99523.44;4863474;29;20075;-83
2022/04/09 06:15:32;;;;;;;37.80;23.90;;;;;;;12.74;52.03;99518.00;4879250;29;20497;-83
2022/04/09 06:18:06;;;;;;;38.95;25.55;;;;;;;12.89;51.85;99514.81;4834236;29;20076;-85
2022/04/09 06:20:32;;;;;;;56.83;25.23;;;;;;;12.79;52.05;99524.69;4881249;29;20104;-85
2022/04/09 06:22:59;;;;;;;49.90;24.75;;;;;;;12.92;52.15;99518.25;4863533;29;20053;-85
2022/04/09 06:25:26;;;;;;;41.95;25.88;;;;;;;12.81;51.84;99517.34;4864591;29;20069;-85
2022/04/09 06:27:52;;;;;;;46.88;25.77;;;;;;;12.86;51.59;99514.25;4863401;29;20131;-81
2022/04/09 06:30:19;;;;;;;43.03;26.17;;;;;;;13.15;51.49;99525.13;4847670;29;20049;-84
2022/04/09 06:33:00;;;;;;;62.20;28.50;;;;;;;13.35;51.13;99516.22;4863648;29;20052;-83
2022/04/09 06:35:29;;;;;;;82.32;28.40;;;;;;;13.62;50.70;99522.78;4866206;29;20152;-84
2022/04/09 06:37:57;;;;;;;48.08;26.92;;;;;;;14.04;50.72;99514.50;4830553;29;20560;-86
2022/04/09 06:40:23;;;;;;;59.92;26.75;;;;;;;14.31;49.67;99508.41;4845556;29;20074;-86
2022/04/09 06:42:50;;;;;;;60.15;26.35;;;;;;;14.58;49.17;99505.00;4846693;29;20041;-87
2022/04/09 06:45:39;;;;;;;;;;;;;;;14.92;48.17;99512.56;4844747;29;20053;-85
2022/04/09 06:48:23;;;;;;;65.18;26.58;;;;;;;15.11;47.94;99507.13;4844926;29;19920;-83
2022/04/09 06:51:24;;;;;;;78.15;29.48;;;;;;;15.22;46.84;99504.25;4850395;29;20057;-85
2022/04/09 06:53:55;;;;;;;69.10;30.25;;;;;;;15.36;47.34;99508.28;4846966;29;20500;-85
2022/04/09 06:56:21;;;;;;;114.60;29.92;;;;;;;15.41;46.50;99507.84;4846292;29;20045;-85
2022/04/09 06:58:47;;;;;;;89.40;28.30;;;;;;;15.43;46.37;99505.84;4857395;29;20076;-84
2022/04/09 07:01:13;;;;;;;61.13;26.17;;;;;;;15.34;45.57;99506.75;4849552;29;20075;-83
2022/04/09 07:03:41;;;;;;;60.85;24.92;;;;;;;15.18;45.85;99502.00;4831868;29;20080;-79
2022/04/09 07:06:07;;;;;;;68.45;25.20;;;;;;;15.38;45.08;99505.44;4869872;29;20087;-81
2022/04/09 07:08:33;;;;;;;76.75;24.33;;;;;;;15.48;45.00;99503.56;4841429;29;20080;-81
2022/04/09 07:10:59;;;;;;;75.18;24.75;;;;;;;15.68;45.58;99498.91;4854903;29;20039;-80
2022/04/09 07:13:25;;;;;;;77.25;22.77;;;;;;;16.19;44.98;99503.66;4834112;29;20037;-80
2022/04/09 07:15:51;;;;;;;88.55;24.02;;;;;;;16.70;44.01;99506.63;4855144;29;20420;-81
2022/04/09 07:18:17;;;;;;;83.78;23.95;;;;;;;17.05;43.05;99497.56;4850537;29;20055;-80
2022/04/09 07:20:44;;;;;;;71.40;20.15;;;;;;;16.87;42.47;99488.69;4870064;29;20144;-80
2022/04/09 07:23:10;;;;;;;53.30;18.67;;;;;;;17.39;41.88;99496.72;4856114;29;20100;-80
2022/04/09 07:25:36;;;;;;;84.32;20.83;;;;;;;17.42;41.00;99497.25;4888767;29;20049;-80
2022/04/09 07:28:03;;;;;;;58.70;17.10;;;;;;;17.59;39.75;99487.31;4887265;29;20093;-80
2022/04/09 07:30:29;;;;;;;81.03;18.98;;;;;;;17.98;39.60;99494.03;4872017;29;20528;-80
2022/04/09 07:32:58;;;;;;;70.05;18.10;;;;;;;18.43;39.43;99480.06;4841525;29;20045;-78
2022/04/09 07:35:27;;;;;;;43.75;16.45;;;;;;;18.99;38.65;99485.56;4878254;29;20045;-81
2022/04/09 07:37:55;;;;;;;49.30;16.02;;;;;;;19.00;36.61;99477.28;4864599;29;20088;-80
2022/04/09 07:40:28;;;;;;;47.88;13.32;;;;;;;18.83;36.55;99479.16;4854265;29;20119;-80
2022/04/09 07:42:55;;;;;;;30.52;11.90;;;;;;;19.03;36.28;99467.94;4842751;29;20152;-81
2022/04/09 07:45:21;;;;;;;55.97;13.65;;;;;;;19.42;36.73;99470.69;4872019;29;20564;-81
2022/04/09 07:47:52;;;;;;;34.40;12.27;;;;;;;19.66;35.25;99472.44;4875546;29;20080;-79
2022/04/09 07:50:19;;;;;;;26.73;7.38;;;;;;;18.95;34.27;99473.38;4866780;29;20123;-80
2022/04/09 07:52:44;;;;;;;18.92;7.13;;;;;;;18.76;35.75;99466.50;4885251;29;20051;-81
2022/04/09 07:55:14;;;;;;;36.88;7.55;;;;;;;18.97;35.33;99464.06;4858949;29;20041;-81
2022/04/09 07:57:41;;;;;;;16.83;7.15;;;;;;;19.33;35.34;99469.00;4866892;29;20048;-80
2022/04/09 08:00:08;;;;;;;28.83;6.43;;;;;;;19.47;35.56;99452.00;4873303;29;20077;-81
2022/04/09 08:02:41;;;;;;;13.43;6.57;;;;;;;19.60;34.61;99457.72;4879697;29;20132;-80
2022/04/09 08:05:09;;;;;;;25.58;7.85;;;;;;;19.66;34.96;99461.59;4872635;29;20508;-79
2022/04/09 08:07:35;;;;;;;36.65;7.40;;;;;;;19.62;34.25;99450.25;4875684;29;20040;-79
2022/04/09 08:10:01;;;;;;;30.63;7.75;;;;;;;19.21;34.39;99451.44;4876097;29;20166;-80
2022/04/09 08:12:27;;;;;;;32.30;5.95;;;;;;;19.14;33.59;99462.13;4862705;29;20044;-81
2022/04/09 08:14:53;;;;;;;14.07;4.45;;;;;;;19.29;33.39;99454.13;4852922;29;20045;-80
2022/04/09 08:17:20;;;;;;;21.27;3.75;;;;;;;19.53;33.07;99456.72;4858740;29;20105;-80
2022/04/09 08:19:47;;;;;;;14.45;3.47;;;;;;;19.44;33.00;99457.78;4892827;29;20051;-79
2022/04/09 08:22:14;;;;;;;46.33;4.40;;;;;;;18.95;32.89;99452.56;4874931;29;20044;-81
2022/04/09 08:24:41;;;;;;;10.40;2.90;;;;;;;18.95;32.77;99457.97;4842824;29;20080;-82
2022/04/09 08:27:08;;;;;;;34.80;4.47;;;;;;;18.85;32.46;99457.34;4845248;29;20451;-81
2022/04/09 08:29:35;;;;;;;24.02;3.65;;;;;;;18.78;33.26;99456.34;4870530;29;20055;-80
2022/04/09 08:32:04;;;;;;;10.73;3.13;;;;;;;18.73;32.89;99462.28;4865957;29;20449;-79
2022/04/09 08:34:33;;;;;;;13.40;3.72;;;;;;;18.59;33.23;99458.38;4831808;29;20042;-80
2022/04/09 08:37:00;;;;;;;14.48;3.70;;;;;;;18.91;33.49;99456.63;4851291;29;20579;-82
2022/04/09 08:39:26;;;;;;;33.67;4.10;;;;;;;18.82;33.36;99447.69;4863472;29;20446;-81
2022/04/09 08:41:53;;;;;;;30.45;4.43;;;;;;;19.22;32.86;99442.28;4846458;29;20049;-81
2022/04/09 08:44:19;;;;;;;15.95;2.88;;;;;;;19.48;32.52;99448.28;4862100;29;20397;-80
2022/04/09 08:46:47;;;;;;;20.10;3.60;;;;;;;19.67;31.80;99446.16;4861430;29;20045;-81
2022/04/09 08:49:13;;;;;;;65.43;5.30;;;;;;;19.87;32.16;99437.41;4861611;29;20493;-80
2022/04/09 08:51:40;;;;;;;11.45;3.67;;;;;;;20.11;32.08;99440.94;4846478;29;20456;-80
2022/04/09 08:54:08;;;;;;;12.60;4.53;;;;;;;20.55;31.99;99446.53;4846282;29;20057;-80
2022/04/09 08:56:35;;;;;;;18.33;4.05;;;;;;;20.92;31.01;99436.66;4830951;29;20132;-80
2022/04/09 08:59:03;;;;;;;13.25;3.58;;;;;;;20.99;30.28;99432.16;4830866;29;20120;-80
2022/04/09 09:01:29;;;;;;;21.50;2.65;;;;;;;21.09;30.04;99429.97;4861459;29;20052;-82
2022/04/09 09:03:57;;;;;;;20.52;3.92;;;;;;;21.46;30.28;99439.06;4861779;29;20419;-80
2022/04/09 09:06:29;;;;;;;12.45;3.20;;;;;;;21.31;29.41;99440.94;4861526;29;20073;-81
2022/04/09 09:08:56;;;;;;;6.88;3.20;;;;;;;21.72;29.48;99438.53;4845632;29;20053;-81
2022/04/09 09:11:23;;;;;;;17.73;3.85;;;;;;;21.92;29.23;99429.72;4846000;29;20049;-81
2022/04/09 09:13:52;;;;;;;10.63;3.05;;;;;;;21.68;28.92;99431.78;4862783;29;20076;-81
2022/04/09 09:16:27;;;;;;;38.55;3.30;;;;;;;21.67;28.81;99427.38;4846243;29;20109;-80
2022/04/09 09:18:59;;;;;;;11.35;3.58;;;;;;;21.68;28.22;99415.47;4845055;29;20053;-80
2022/04/09 09:21:28;;;;;;;21.95;3.13;;;;;;;21.82;28.33;99438.22;4845646;29;20465;-83
2022/04/09 09:24:07;;;;;;;22.70;3.50;;;;;;;21.73;28.10;99444.81;4860901;29;20045;-81
2022/04/09 09:26:38;;;;;;;29.38;4.10;;;;;;;21.63;28.68;99433.41;4845207;29;20054;-81
2022/04/09 09:29:05;;;;;;;43.45;4.22;;;;;;;21.71;28.82;99436.00;4861925;29;20053;-81
2022/04/09 09:31:46;;;;;;;16.23;3.20;;;;;;;21.04;28.56;99439.75;4845485;29;20458;-80
2022/04/09 09:34:19;;;;;;;12.98;3.28;;;;;;;20.91;29.33;99440.41;4830331;29;20501;-84
2022/04/09 09:36:45;;;;;;;4.28;3.25;;;;;;;21.00;29.03;99441.16;4861203;29;20136;-87
2022/04/09 09:39:14;;;;;;;27.08;4.85;;;;;;;20.94;29.30;99440.00;4861659;29;20516;-85
2022/04/09 09:41:54;;;;;;;25.85;3.88;;;;;;;21.02;29.54;99430.91;4845633;29;20509;-85
2022/04/09 09:44:30;;;;;;;11.18;3.50;;;;;;;21.06;29.41;99427.66;4845166;29;20049;-82
2022/04/09 09:47:07;;;;;;;13.90;2.83;;;;;;;21.28;28.42;99425.00;4861123;29;20064;-82
2022/04/09 09:49:37;;;;;;;7.60;3.22;;;;;;;21.15;28.95;99424.84;4845712;29;20052;-83
2022/04/09 09:52:05;;;;;;;13.60;3.10;;;;;;;21.20;29.09;99422.38;4860644;29;20041;-83
2022/04/09 09:54:31;;;;;;;8.50;3.50;;;;;;;21.27;28.89;99423.31;4845243;29;20052;-81
2022/04/09 09:56:57;;;;;;;21.55;3.92;;;;;;;21.34;29.25;99427.00;4860233;29;20049;-81
2022/04/09 09:59:24;;;;;;;24.13;4.03;;;;;;;21.57;28.85;99430.41;4845404;29;20045;-80
2022/04/09 10:01:51;;;;;;;18.67;4.20;;;;;;;21.78;28.96;99420.59;4845498;29;20045;-80
2022/04/09 10:04:17;;;;;;;12.23;3.67;;;;;;;21.72;28.61;99424.91;4845258;29;20537;-81
2022/04/09 10:06:45;;;;;;;15.90;3.00;;;;;;;22.20;28.04;99421.66;4860348;29;20056;-81
2022/04/09 10:09:15;;;;;;;9.85;2.92;;;;;;;22.26;27.71;99418.97;4844554;29;20517;-81
2022/04/09 10:11:47;;;;;;;16.35;3.42;;;;;;;22.78;27.41;99416.84;4861463;29;20050;-82
2022/04/09 10:14:17;;;;;;;21.65;4.30;;;;;;;23.16;26.53;99408.28;4861561;29;20046;-82
2022/04/09 10:16:45;;;;;;;22.45;4.30;;;;;;;23.36;26.69;99413.84;4860627;29;20092;-81
2022/04/09 10:19:11;;;;;;;10.00;3.85;;;;;;;22.98;26.41;99414.28;4829656;29;20049;-81
2022/04/09 10:21:42;;;;;;;15.45;3.83;;;;;;;22.81;27.08;99415.63;4859799;29;20524;-81
2022/04/09 10:24:20;;;;;;;11.35;3.15;;;;;;;22.33;26.64;99419.03;4844564;29;20049;-85
2022/04/09 10:26:46;;;;;;;11.60;3.50;;;;;;;22.28;27.43;99400.56;4860619;29;20041;-82
2022/04/09 10:29:12;;;;;;;16.00;3.55;;;;;;;22.31;27.35;99393.91;4844648;29;20045;-82
2022/04/09 10:31:39;;;;;;;13.32;3.90;;;;;;;22.00;27.45;99392.34;4859560;29;20447;-80
2022/04/09 10:34:16;;;;;;;18.90;4.50;;;;;;;22.02;27.57;99387.53;4860747;29;20048;-80
2022/04/09 10:36:45;;;;;;;22.42;4.22;;;;;;;21.95;27.75;99394.81;4844105;29;20060;-80
2022/04/09 10:39:25;;;;;;;17.92;4.28;;;;;;;21.95;27.70;99389.34;4859659;29;20045;-81
2022/04/09 10:41:54;;;;;;;11.52;4.63;;;;;;;22.30;27.34;99392.19;4844609;29;20056;-81
2022/04/09 10:44:44;;;;;;;17.30;5.13;;;;;;;22.17;27.41;99386.66;4861317;29;20057;-80
2022/04/09 10:47:13;;;;;;;11.35;4.10;;;;;;;22.03;27.50;99383.78;4859928;29;20105;-81
2022/04/09 10:49:39;;;;;;;16.20;3.55;;;;;;;21.73;27.50;99376.78;4860808;29;20045;-81
2022/04/09 10:52:16;;;;;;;13.82;2.90;;;;;;;21.85;27.23;99377.94;4860731;29;20113;-80
2022/04/09 10:55:11;;;;;;;11.15;3.70;;;;;;;21.94;27.21;99373.25;4860836;29;20080;-82
2022/04/09 10:57:46;;;;;;;7.50;2.70;;;;;;;22.10;26.91;99369.38;4859641;29;20502;-81
2022/04/09 11:00:21;;;;;;;9.40;2.47;;;;;;;22.06;27.37;99367.06;4860805;29;20555;-82
2022/04/09 11:03:04;;;;;;;19.27;3.20;;;;;;;22.21;26.89;99380.63;4859250;29;20041;-80
2022/04/09 11:05:30;;;;;;;19.52;2.90;;;;;;;22.20;27.25;99380.81;4859412;29;20068;-83
2022/04/09 11:08:09;;;;;;;42.53;3.67;;;;;;;22.04;26.74;99373.72;4828740;29;20057;-85
2022/04/09 11:10:35;;;;;;;14.20;2.95;;;;;;;21.90;27.19;99378.22;4828674;29;20065;-84
2022/04/09 11:13:02;;;;;;;7.32;2.45;;;;;;;22.02;27.47;99368.50;4829006;29;20055;-85
2022/04/09 11:15:29;;;;;;;33.22;4.57;;;;;;;22.41;26.89;99374.47;4829017;29;20041;-84
2022/04/09 11:18:01;;;;;;;6.50;3.20;;;;;;;22.85;26.53;99368.69;4859513;29;20045;-84
2022/04/09 11:20:35;;;;;;;6.03;3.15;;;;;;;23.05;26.75;99357.06;4860567;29;20061;-85
2022/04/09 11:23:09;;;;;;;13.40;3.58;;;;;;;23.17;26.12;99355.44;4844463;29;20045;-85
2022/04/09 11:25:36;;;;;;;21.17;4.38;;;;;;;23.10;26.26;99360.88;4859662;29;20053;-85
2022/04/09 11:28:19;;;;;;;18.52;4.75;;;;;;;23.12;26.24;99352.47;4861221;29;20047;-86
2022/04/09 11:31:02;;;;;;;16.02;4.13;;;;;;;23.42;25.41;99359.31;4859467;29;20141;-89